Dennis Port, MA

11:46 PM EST on November 26, 2014 (GMT -0500)
Provincetown Municipal | Change Station
CLOSE
Current Station
Airport
Location: Provincetown,
Elevation: 7 ft
Nearby Weather Stations
Active Advisory: Wind Advisory Active Notice: Record Report, Public Information Statement

Elev 7 ft 42.07 °N, 70.22 °W | Updated 11 minutes ago

Rain
Rain
45 °F
Feels Like 35 °F
N
28
Wind Variable Wind from North
Gusts 40 mph

Today
High -- | Low -- °F
--% Chance of Precip.
Yesterday
High -- | Low -- °F
Precip. -- in
6:42 AM 4:12 PM
Waxing Crescent, 25% visible
Pressure 29.56 in
Visibility 3.0 miles
Clouds Scattered Clouds 800 ft
Overcast 1500 ft
Windchill 35 °F
Dew Point 43 °F
Humidity 93%
Rainfall 0.00 in
Snow Depth Not available.
UV 0 out of 12
Pollen .10 out of 12
Air Quality Not available.
Flu Activity Not available.
METAR KPVC 270435Z 01024G35KT 3SM SCT008 OVC015 07/06 A2956 RMK AO1

More Conditions Fewer Conditions

Pressure 29.56 in
Visibility 3.0 miles
Clouds Scattered Clouds 800 ft
Overcast 1500 ft
Windchill 35 °F
Dew Point 43 °F
Humidity 93%
Rainfall 0.00 in
Snow Depth Not available.
UV 0 out of 12
Pollen .10 out of 12
Air Quality Not available.
Flu Activity Not available.
METAR KPVC 270435Z 01024G35KT 3SM SCT008 OVC015 07/06 A2956 RMK AO1

More Conditions Fewer Conditions

10-Day Weather Forecast

Almanac

Astronomy

Nov. 26, 2014 Rise Set
Actual Time
Civil Twilight
Nautical Twilight
Astronomical Twilight
Moon
Length of Visible Light
Length of Day
Tomorrow will be .
, % of the Moon is Illuminated

Today's Extremes

State Highs State Lows

Community

WunderPhotos

Upload Photos

1,773,959 photos uploaded!

WunderBlogs® & News

Nearby

Air Quality

  Air Quality AQ Index Pollutant
Not available.

Snow Depth

Station Depth Elevation

Earthquake Activity

City Distance Mag. Time & Date
Minimum magnitude displayed is 2.5.

Coastal Water Temperatures

Place Temperature

Nearby Weather Stations